sensor_id;sensor_type;location;lat;lon;timestamp;pressure;altitude;pressure_sealevel;temperature;humidity
57442;BME280;43284;47.042;15.498;2023-04-06T00:00:37;97445.88;;;-2.03;64.63
57442;BME280;43284;47.042;15.498;2023-04-06T00:03:02;97445.06;;;-2.05;64.76
57442;BME280;43284;47.042;15.498;2023-04-06T00:05:28;97443.31;;;-2.08;65.83
57442;BME280;43284;47.042;15.498;2023-04-06T00:07:57;97444.09;;;-2.23;65.40
57442;BME280;43284;47.042;15.498;2023-04-06T00:10:23;97432.16;;;-2.18;65.68
57442;BME280;43284;47.042;15.498;2023-04-06T00:12:48;97436.44;;;-2.18;65.00
57442;BME280;43284;47.042;15.498;2023-04-06T00:15:14;97433.84;;;-2.24;64.76
57442;BME280;43284;47.042;15.498;2023-04-06T00:17:40;97434.66;;;-2.25;64.65
57442;BME280;43284;47.042;15.498;2023-04-06T00:20:06;97431.28;;;-2.20;66.60
57442;BME280;43284;47.042;15.498;2023-04-06T00:22:32;97427.75;;;-2.39;66.06
57442;BME280;43284;47.042;15.498;2023-04-06T00:24:57;97420.94;;;-2.38;66.19
57442;BME280;43284;47.042;15.498;2023-04-06T00:27:23;97423.53;;;-2.34;68.87
57442;BME280;43284;47.042;15.498;2023-04-06T00:29:48;97423.53;;;-2.32;68.68
57442;BME280;43284;47.042;15.498;2023-04-06T00:32:14;97414.19;;;-2.29;68.56
57442;BME280;43284;47.042;15.498;2023-04-06T00:34:40;97409.91;;;-2.30;67.05
57442;BME280;43284;47.042;15.498;2023-04-06T00:37:05;97415.91;;;-2.24;68.61
57442;BME280;43284;47.042;15.498;2023-04-06T00:39:31;97425.28;;;-2.30;67.35
57442;BME280;43284;47.042;15.498;2023-04-06T00:41:56;97418.38;;;-2.37;67.77
57442;BME280;43284;47.042;15.498;2023-04-06T00:44:22;97419.22;;;-2.42;66.99
57442;BME280;43284;47.042;15.498;2023-04-06T00:46:48;97414.91;;;-2.45;67.47
57442;BME280;43284;47.042;15.498;2023-04-06T00:49:13;97407.25;;;-2.46;66.66
57442;BME280;43284;47.042;15.498;2023-04-06T00:51:39;97413.22;;;-2.46;66.43
57442;BME280;43284;47.042;15.498;2023-04-06T00:54:05;97413.16;;;-2.55;66.97
57442;BME280;43284;47.042;15.498;2023-04-06T00:56:30;97417.44;;;-2.53;68.45
57442;BME280;43284;47.042;15.498;2023-04-06T00:58:56;97405.44;;;-2.57;68.76
57442;BME280;43284;47.042;15.498;2023-04-06T01:01:23;97413.16;;;-2.55;67.33
57442;BME280;43284;47.042;15.498;2023-04-06T01:03:49;97407.16;;;-2.59;67.33
57442;BME280;43284;47.042;15.498;2023-04-06T01:06:15;97416.56;;;-2.55;68.24
57442;BME280;43284;47.042;15.498;2023-04-06T01:08:41;97408.00;;;-2.60;67.46
57442;BME280;43284;47.042;15.498;2023-04-06T01:11:07;97406.22;;;-2.68;67.68
57442;BME280;43284;47.042;15.498;2023-04-06T01:13:32;97407.97;;;-2.63;66.81
57442;BME280;43284;47.042;15.498;2023-04-06T01:15:58;97405.34;;;-2.69;66.63
57442;BME280;43284;47.042;15.498;2023-04-06T01:18:28;97403.59;;;-2.79;67.92
57442;BME280;43284;47.042;15.498;2023-04-06T01:20:53;97405.34;;;-2.75;68.41
57442;BME280;43284;47.042;15.498;2023-04-06T01:23:19;97401.06;;;-2.75;68.56
57442;BME280;43284;47.042;15.498;2023-04-06T01:25:45;97401.00;;;-2.81;67.92
57442;BME280;43284;47.042;15.498;2023-04-06T01:28:10;97404.44;;;-2.82;67.75
57442;BME280;43284;47.042;15.498;2023-04-06T01:30:36;97397.50;;;-2.92;68.09
57442;BME280;43284;47.042;15.498;2023-04-06T01:33:02;97406.06;;;-2.90;69.07
57442;BME280;43284;47.042;15.498;2023-04-06T01:35:28;97394.13;;;-2.86;68.72
57442;BME280;43284;47.042;15.498;2023-04-06T01:37:54;97395.88;;;-2.85;68.77
57442;BME280;43284;47.042;15.498;2023-04-06T01:40:20;97396.69;;;-2.90;68.02
57442;BME280;43284;47.042;15.498;2023-04-06T01:42:46;97393.19;;;-2.98;68.65
57442;BME280;43284;47.042;15.498;2023-04-06T01:45:11;97396.63;;;-2.97;68.35
57442;BME280;43284;47.042;15.498;2023-04-06T01:47:37;97400.00;;;-3.00;68.85
57442;BME280;43284;47.042;15.498;2023-04-06T01:50:03;97396.56;;;-3.03;68.25
57442;BME280;43284;47.042;15.498;2023-04-06T01:52:32;97397.34;;;-3.11;69.40
57442;BME280;43284;47.042;15.498;2023-04-06T01:54:58;97401.53;;;-3.17;69.06
57442;BME280;43284;47.042;15.498;2023-04-06T01:57:23;97397.28;;;-3.15;69.49
57442;BME280;43284;47.042;15.498;2023-04-06T01:59:50;97390.44;;;-3.22;69.04
57442;BME280;43284;47.042;15.498;2023-04-06T02:02:16;97396.47;;;-3.14;70.79
57442;BME280;43284;47.042;15.498;2023-04-06T02:04:41;97393.94;;;-3.11;70.89
57442;BME280;43284;47.042;15.498;2023-04-06T02:07:07;97385.44;;;-3.07;70.67
57442;BME280;43284;47.042;15.498;2023-04-06T02:09:33;97389.72;;;-3.06;69.73
57442;BME280;43284;47.042;15.498;2023-04-06T02:11:58;97388.09;;;-2.99;70.57
57442;BME280;43284;47.042;15.498;2023-04-06T02:14:25;97385.50;;;-3.01;69.33
57442;BME280;43284;47.042;15.498;2023-04-06T02:16:51;97387.19;;;-3.06;69.08
57442;BME280;43284;47.042;15.498;2023-04-06T02:19:16;97385.34;;;-3.21;68.83
57442;BME280;43284;47.042;15.498;2023-04-06T02:21:42;97386.22;;;-3.19;69.65
57442;BME280;43284;47.042;15.498;2023-04-06T02:24:08;97384.44;;;-3.24;69.67
57442;BME280;43284;47.042;15.498;2023-04-06T02:26:33;97393.75;;;-3.31;69.53
57442;BME280;43284;47.042;15.498;2023-04-06T02:28:59;97387.69;;;-3.39;69.82
57442;BME280;43284;47.042;15.498;2023-04-06T02:31:24;97381.75;;;-3.40;70.54
57442;BME280;43284;47.042;15.498;2023-04-06T02:33:50;97394.47;;;-3.44;70.37
57442;BME280;43284;47.042;15.498;2023-04-06T02:36:15;97389.38;;;-3.41;70.06
57442;BME280;43284;47.042;15.498;2023-04-06T02:38:41;97389.28;;;-3.50;69.89
57442;BME280;43284;47.042;15.498;2023-04-06T02:41:07;97392.66;;;-3.56;71.72
57442;BME280;43284;47.042;15.498;2023-04-06T02:43:33;97383.25;;;-3.57;70.69
57442;BME280;43284;47.042;15.498;2023-04-06T02:45:58;97387.50;;;-3.59;70.48
57442;BME280;43284;47.042;15.498;2023-04-06T02:48:24;97389.19;;;-3.61;70.96
57442;BME280;43284;47.042;15.498;2023-04-06T02:50:49;97382.38;;;-3.59;70.16
57442;BME280;43284;47.042;15.498;2023-04-06T02:53:15;97376.38;;;-3.64;70.80
57442;BME280;43284;47.042;15.498;2023-04-06T02:55:40;97374.63;;;-3.68;70.80
57442;BME280;43284;47.042;15.498;2023-04-06T02:58:06;97377.97;;;-3.74;72.05
57442;BME280;43284;47.042;15.498;2023-04-06T03:00:32;97383.16;;;-3.69;72.24
57442;BME280;43284;47.042;15.498;2023-04-06T03:02:57;97377.22;;;-3.65;72.30
57442;BME280;43284;47.042;15.498;2023-04-06T03:05:23;97372.16;;;-3.62;71.81
57442;BME280;43284;47.042;15.498;2023-04-06T03:07:48;97371.28;;;-3.64;70.19
57442;BME280;43284;47.042;15.498;2023-04-06T03:10:14;97376.34;;;-3.69;71.75
57442;BME280;43284;47.042;15.498;2023-04-06T03:12:40;97376.34;;;-3.66;72.63
57442;BME280;43284;47.042;15.498;2023-04-06T03:15:07;97367.00;;;-3.67;71.92
57442;BME280;43284;47.042;15.498;2023-04-06T03:17:33;97378.09;;;-3.65;71.57
57442;BME280;43284;47.042;15.498;2023-04-06T03:19:59;97374.56;;;-3.75;71.36
57442;BME280;43284;47.042;15.498;2023-04-06T03:22:24;97376.31;;;-3.70;72.88
57442;BME280;43284;47.042;15.498;2023-04-06T03:24:50;97373.72;;;-3.72;72.07
57442;BME280;43284;47.042;15.498;2023-04-06T03:27:16;97372.72;;;-3.85;72.71
57442;BME280;43284;47.042;15.498;2023-04-06T03:29:41;97381.34;;;-3.78;74.18
57442;BME280;43284;47.042;15.498;2023-04-06T03:32:07;97377.97;;;-3.76;74.40
57442;BME280;43284;47.042;15.498;2023-04-06T03:34:32;97373.72;;;-3.72;74.01
57442;BME280;43284;47.042;15.498;2023-04-06T03:36:58;97377.16;;;-3.70;74.27
57442;BME280;43284;47.042;15.498;2023-04-06T03:39:23;97379.72;;;-3.70;72.66
57442;BME280;43284;47.042;15.498;2023-04-06T03:41:49;97379.59;;;-3.81;72.35
57442;BME280;43284;47.042;15.498;2023-04-06T03:44:15;97379.66;;;-3.78;73.70
57442;BME280;43284;47.042;15.498;2023-04-06T03:46:40;97380.44;;;-3.82;72.80
57442;BME280;43284;47.042;15.498;2023-04-06T03:49:06;97382.94;;;-3.85;72.86
57442;BME280;43284;47.042;15.498;2023-04-06T03:51:31;97389.84;;;-3.78;73.27
57442;BME280;43284;47.042;15.498;2023-04-06T03:53:57;97388.78;;;-3.97;71.61
57442;BME280;43284;47.042;15.498;2023-04-06T03:56:22;97389.59;;;-3.99;73.46
57442;BME280;43284;47.042;15.498;2023-04-06T03:58:48;97390.31;;;-4.09;72.31
57442;BME280;43284;47.042;15.498;2023-04-06T04:01:17;97403.13;;;-4.06;73.62
57442;BME280;43284;47.042;15.498;2023-04-06T04:03:45;97398.97;;;-4.00;73.49
57442;BME280;43284;47.042;15.498;2023-04-06T04:06:11;97396.41;;;-4.00;72.32
57442;BME280;43284;47.042;15.498;2023-04-06T04:08:37;97397.22;;;-4.01;73.42
57442;BME280;43284;47.042;15.498;2023-04-06T04:11:02;97391.25;;;-4.03;73.88
57442;BME280;43284;47.042;15.498;2023-04-06T04:13:28;97404.81;;;-4.08;73.21
57442;BME280;43284;47.042;15.498;2023-04-06T04:15:53;97399.66;;;-4.11;72.32
57442;BME280;43284;47.042;15.498;2023-04-06T04:18:19;97397.09;;;-4.11;73.32
57442;BME280;43284;47.042;15.498;2023-04-06T04:20:45;97407.09;;;-4.27;72.88
57442;BME280;43284;47.042;15.498;2023-04-06T04:23:11;97406.38;;;-4.20;74.02
57442;BME280;43284;47.042;15.498;2023-04-06T04:25:36;97406.44;;;-4.14;74.78
57442;BME280;43284;47.042;15.498;2023-04-06T04:28:02;97409.00;;;-4.12;74.09
57442;BME280;43284;47.042;15.498;2023-04-06T04:30:28;97416.41;;;-4.32;73.00
57442;BME280;43284;47.042;15.498;2023-04-06T04:32:53;97412.00;;;-4.42;73.89
57442;BME280;43284;47.042;15.498;2023-04-06T04:35:19;97420.66;;;-4.31;74.90
57442;BME280;43284;47.042;15.498;2023-04-06T04:37:45;97422.31;;;-4.33;73.13
57442;BME280;43284;47.042;15.498;2023-04-06T04:40:11;97417.25;;;-4.31;75.45
57442;BME280;43284;47.042;15.498;2023-04-06T04:42:37;97424.03;;;-4.33;73.94
57442;BME280;43284;47.042;15.498;2023-04-06T04:45:02;97428.28;;;-4.34;73.54
57442;BME280;43284;47.042;15.498;2023-04-06T04:47:28;97415.63;;;-4.25;75.28
57442;BME280;43284;47.042;15.498;2023-04-06T04:49:53;97426.69;;;-4.24;74.32
57442;BME280;43284;47.042;15.498;2023-04-06T04:52:19;97424.16;;;-4.24;74.50
57442;BME280;43284;47.042;15.498;2023-04-06T04:54:45;97431.88;;;-4.21;75.30
57442;BME280;43284;47.042;15.498;2023-04-06T04:57:12;97425.97;;;-4.17;74.99
57442;BME280;43284;47.042;15.498;2023-04-06T04:59:38;97422.50;;;-4.21;74.16
57442;BME280;43284;47.042;15.498;2023-04-06T05:02:03;97426.06;;;-4.11;75.08
57442;BME280;43284;47.042;15.498;2023-04-06T05:04:29;97417.56;;;-4.08;74.45
57442;BME280;43284;47.042;15.498;2023-04-06T05:07:07;97416.56;;;-4.20;74.47
57442;BME280;43284;47.042;15.498;2023-04-06T05:09:33;97421.56;;;-4.27;74.96
57442;BME280;43284;47.042;15.498;2023-04-06T05:11:59;97419.06;;;-4.23;74.91
57442;BME280;43284;47.042;15.498;2023-04-06T05:14:26;97413.19;;;-4.17;75.14
57442;BME280;43284;47.042;15.498;2023-04-06T05:16:52;97411.53;;;-4.15;74.39
57442;BME280;43284;47.042;15.498;2023-04-06T05:19:18;97408.22;;;-4.08;75.07
57442;BME280;43284;47.042;15.498;2023-04-06T05:21:43;97411.69;;;-4.04;74.54
57442;BME280;43284;47.042;15.498;2023-04-06T05:24:09;97404.94;;;-3.96;75.15
57442;BME280;43284;47.042;15.498;2023-04-06T05:26:34;97406.78;;;-3.86;75.74
57442;BME280;43284;47.042;15.498;2023-04-06T05:29:00;97402.53;;;-3.85;74.15
57442;BME280;43284;47.042;15.498;2023-04-06T05:31:26;97408.47;;;-3.85;74.58
57442;BME280;43284;47.042;15.498;2023-04-06T05:33:51;97409.41;;;-3.80;74.36
57442;BME280;43284;47.042;15.498;2023-04-06T05:36:17;97405.94;;;-3.85;73.04
57442;BME280;43284;47.042;15.498;2023-04-06T05:38:43;97396.66;;;-3.80;73.73
57442;BME280;43284;47.042;15.498;2023-04-06T05:41:08;97400.97;;;-3.76;73.36
57442;BME280;43284;47.042;15.498;2023-04-06T05:43:34;97397.56;;;-3.73;73.55
57442;BME280;43284;47.042;15.498;2023-04-06T05:45:59;97396.75;;;-3.67;73.63
57442;BME280;43284;47.042;15.498;2023-04-06T05:48:25;97396.81;;;-3.64;73.15
57442;BME280;43284;47.042;15.498;2023-04-06T05:50:51;97404.56;;;-3.55;73.45
57442;BME280;43284;47.042;15.498;2023-04-06T05:53:17;97405.53;;;-3.47;73.60
57442;BME280;43284;47.042;15.498;2023-04-06T05:55:42;97409.81;;;-3.41;73.45
57442;BME280;43284;47.042;15.498;2023-04-06T05:58:09;97404.81;;;-3.34;73.52
57442;BME280;43284;47.042;15.498;2023-04-06T06:00:34;97401.47;;;-3.28;73.19
57442;BME280;43284;47.042;15.498;2023-04-06T06:03:00;97412.66;;;-3.17;72.95
57442;BME280;43284;47.042;15.498;2023-04-06T06:05:29;97399.06;;;-3.09;72.58
57442;BME280;43284;47.042;15.498;2023-04-06T06:07:55;97401.69;;;-3.03;71.95
57442;BME280;43284;47.042;15.498;2023-04-06T06:10:20;97405.16;;;-2.95;71.92
57442;BME280;43284;47.042;15.498;2023-04-06T06:12:46;97400.97;;;-2.85;71.77
57442;BME280;43284;47.042;15.498;2023-04-06T06:15:11;97405.34;;;-2.75;71.62
57442;BME280;43284;47.042;15.498;2023-04-06T06:17:37;97411.34;;;-2.65;71.23
57442;BME280;43284;47.042;15.498;2023-04-06T06:20:05;97407.16;;;-2.57;70.96
57442;BME280;43284;47.042;15.498;2023-04-06T06:22:31;97397.84;;;-2.46;71.09
57442;BME280;43284;47.042;15.498;2023-04-06T06:24:57;97403.88;;;-2.38;70.54
57442;BME280;43284;47.042;15.498;2023-04-06T06:27:22;97392.84;;;-2.28;70.28
57442;BME280;43284;47.042;15.498;2023-04-06T06:29:48;97392.91;;;-2.18;69.94
57442;BME280;43284;47.042;15.498;2023-04-06T06:32:14;97393.84;;;-2.02;69.23
57442;BME280;43284;47.042;15.498;2023-04-06T06:34:39;97395.59;;;-1.91;68.59
57442;BME280;43284;47.042;15.498;2023-04-06T06:37:05;97388.81;;;-1.81;68.51
57442;BME280;43284;47.042;15.498;2023-04-06T06:39:31;97385.44;;;-1.66;67.76
57442;BME280;43284;47.042;15.498;2023-04-06T06:41:56;97395.75;;;-1.51;67.08
57442;BME280;43284;47.042;15.498;2023-04-06T06:44:22;97391.50;;;-1.44;66.60
57442;BME280;43284;47.042;15.498;2023-04-06T06:46:48;97387.25;;;-1.23;65.41
57442;BME280;43284;47.042;15.498;2023-04-06T06:49:13;97389.00;;;-1.02;65.64
57442;BME280;43284;47.042;15.498;2023-04-06T06:51:40;97391.56;;;-0.93;65.38
57442;BME280;43284;47.042;15.498;2023-04-06T06:54:06;97384.72;;;-0.74;64.29
57442;BME280;43284;47.042;15.498;2023-04-06T06:56:31;97383.84;;;-0.67;64.66
57442;BME280;43284;47.042;15.498;2023-04-06T06:58:57;97381.28;;;-0.50;63.94
57442;BME280;43284;47.042;15.498;2023-04-06T07:01:22;97375.25;;;-0.26;61.63
57442;BME280;43284;47.042;15.498;2023-04-06T07:03:48;97370.84;;;0.04;59.49
57442;BME280;43284;47.042;15.498;2023-04-06T07:06:13;97371.56;;;0.36;59.81
57442;BME280;43284;47.042;15.498;2023-04-06T07:08:39;97374.88;;;0.58;58.13
57442;BME280;43284;47.042;15.498;2023-04-06T07:11:05;97370.50;;;0.76;57.19
57442;BME280;43284;47.042;15.498;2023-04-06T07:13:30;97361.81;;;0.89;57.72
57442;BME280;43284;47.042;15.498;2023-04-06T07:15:56;97365.22;;;0.99;56.89
57442;BME280;43284;47.042;15.498;2023-04-06T07:18:22;97372.91;;;1.03;57.97
57442;BME280;43284;47.042;15.498;2023-04-06T07:20:48;97374.50;;;1.17;57.68
57442;BME280;43284;47.042;15.498;2023-04-06T07:23:13;97368.47;;;1.19;56.74
57442;BME280;43284;47.042;15.498;2023-04-06T07:25:39;97371.03;;;1.22;57.18
57442;BME280;43284;47.042;15.498;2023-04-06T07:28:04;97369.28;;;1.28;56.81
57442;BME280;43284;47.042;15.498;2023-04-06T07:30:30;97370.97;;;1.29;56.91
57442;BME280;43284;47.042;15.498;2023-04-06T07:32:56;97368.28;;;1.42;55.36
57442;BME280;43284;47.042;15.498;2023-04-06T07:35:24;97361.31;;;1.54;53.86
57442;BME280;43284;47.042;15.498;2023-04-06T07:37:51;97363.72;;;1.69;55.30
57442;BME280;43284;47.042;15.498;2023-04-06T07:40:17;97369.63;;;1.79;53.86
57442;BME280;43284;47.042;15.498;2023-04-06T07:42:43;97363.44;;;1.97;52.32
57442;BME280;43284;47.042;15.498;2023-04-06T07:45:09;97364.28;;;1.97;53.01
57442;BME280;43284;47.042;15.498;2023-04-06T07:47:35;97360.72;;;2.09;53.27
57442;BME280;43284;47.042;15.498;2023-04-06T07:50:00;97353.53;;;2.34;50.15
57442;BME280;43284;47.042;15.498;2023-04-06T07:52:26;97355.09;;;2.46;50.73
57442;BME280;43284;47.042;15.498;2023-04-06T07:54:51;97352.28;;;2.63;52.08
57442;BME280;43284;47.042;15.498;2023-04-06T07:57:17;97350.41;;;2.74;49.37
57442;BME280;43284;47.042;15.498;2023-04-06T07:59:43;97341.94;;;2.64;48.80
57442;BME280;43284;47.042;15.498;2023-04-06T08:02:08;97342.44;;;2.88;50.60
57442;BME280;43284;47.042;15.498;2023-04-06T08:04:35;97343.19;;;2.98;47.74
57442;BME280;43284;47.042;15.498;2023-04-06T08:07:01;97349.13;;;3.03;47.80
57442;BME280;43284;47.042;15.498;2023-04-06T08:09:26;97336.94;;;3.11;47.39
57442;BME280;43284;47.042;15.498;2023-04-06T08:11:52;97335.03;;;3.21;48.36
57442;BME280;43284;47.042;15.498;2023-04-06T08:14:18;97320.91;;;3.43;48.03
57442;BME280;43284;47.042;15.498;2023-04-06T08:16:44;97322.22;;;3.66;47.44
57442;BME280;43284;47.042;15.498;2023-04-06T08:19:09;97322.13;;;3.69;46.08
57442;BME280;43284;47.042;15.498;2023-04-06T08:21:36;97321.94;;;3.80;47.70
57442;BME280;43284;47.042;15.498;2023-04-06T08:24:01;97312.28;;;3.89;46.65
57442;BME280;43284;47.042;15.498;2023-04-06T08:26:27;97311.97;;;4.05;46.15
57442;BME280;43284;47.042;15.498;2023-04-06T08:28:53;97310.63;;;4.29;44.01
57442;BME280;43284;47.042;15.498;2023-04-06T08:31:19;97301.94;;;4.31;44.54
57442;BME280;43284;47.042;15.498;2023-04-06T08:33:44;97295.72;;;4.40;44.96
57442;BME280;43284;47.042;15.498;2023-04-06T08:36:14;97290.72;;;4.70;45.15
57442;BME280;43284;47.042;15.498;2023-04-06T08:38:41;97287.63;;;4.91;44.54
57442;BME280;43284;47.042;15.498;2023-04-06T08:41:12;97284.22;;;5.25;44.03
57442;BME280;43284;47.042;15.498;2023-04-06T08:43:44;97280.53;;;5.34;41.22
57442;BME280;43284;47.042;15.498;2023-04-06T08:46:12;97280.97;;;5.17;43.01
57442;BME280;43284;47.042;15.498;2023-04-06T08:48:42;97266.75;;;5.32;41.12
57442;BME280;43284;47.042;15.498;2023-04-06T08:51:09;97272.69;;;5.35;41.53
57442;BME280;43284;47.042;15.498;2023-04-06T08:53:35;97268.16;;;5.44;41.26
57442;BME280;43284;47.042;15.498;2023-04-06T08:56:02;97259.41;;;5.49;40.61
57442;BME280;43284;47.042;15.498;2023-04-06T08:58:33;97259.09;;;5.60;40.22
57442;BME280;43284;47.042;15.498;2023-04-06T09:00:59;97265.25;;;5.87;42.36
57442;BME280;43284;47.042;15.498;2023-04-06T09:03:30;97256.44;;;5.94;41.51
57442;BME280;43284;47.042;15.498;2023-04-06T09:05:57;97252.41;;;6.14;40.28
57442;BME280;43284;47.042;15.498;2023-04-06T09:08:23;97250.56;;;6.19;37.85
57442;BME280;43284;47.042;15.498;2023-04-06T09:10:49;97251.44;;;6.18;38.06
57442;BME280;43284;47.042;15.498;2023-04-06T09:13:14;97239.72;;;6.05;35.77
57442;BME280;43284;47.042;15.498;2023-04-06T09:15:40;97239.97;;;6.25;35.18
57442;BME280;43284;47.042;15.498;2023-04-06T09:18:06;97233.66;;;6.34;35.15
57442;BME280;43284;47.042;15.498;2023-04-06T09:20:33;97224.38;;;6.81;35.59
57442;BME280;43284;47.042;15.498;2023-04-06T09:22:58;97219.78;;;6.63;36.66
57442;BME280;43284;47.042;15.498;2023-04-06T09:25:24;97225.38;;;7.04;36.14
57442;BME280;43284;47.042;15.498;2023-04-06T09:28:02;97223.06;;;7.21;34.15
57442;BME280;43284;47.042;15.498;2023-04-06T09:30:29;97218.34;;;7.06;35.23
57442;BME280;43284;47.042;15.498;2023-04-06T09:32:56;97211.09;;;7.41;36.19
57442;BME280;43284;47.042;15.498;2023-04-06T09:35:23;97204.50;;;7.56;34.28
57442;BME280;43284;47.042;15.498;2023-04-06T09:37:50;97200.75;;;7.39;32.86
57442;BME280;43284;47.042;15.498;2023-04-06T09:40:17;97204.84;;;7.47;33.51
57442;BME280;43284;47.042;15.498;2023-04-06T09:42:48;97192.09;;;7.39;32.94
57442;BME280;43284;47.042;15.498;2023-04-06T09:45:15;97200.44;;;7.49;32.01
57442;BME280;43284;47.042;15.498;2023-04-06T09:47:44;97191.50;;;7.56;34.89
57442;BME280;43284;47.042;15.498;2023-04-06T09:50:12;97194.19;;;8.00;33.61
57442;BME280;43284;47.042;15.498;2023-04-06T09:52:51;97187.09;;;7.58;32.53
57442;BME280;43284;47.042;15.498;2023-04-06T09:55:32;97183.19;;;7.93;32.87
57442;BME280;43284;47.042;15.498;2023-04-06T09:58:07;97169.56;;;8.09;31.72
57442;BME280;43284;47.042;15.498;2023-04-06T10:00:47;97178.31;;;8.08;34.05
57442;BME280;43284;47.042;15.498;2023-04-06T10:03:34;97172.78;;;8.15;31.79
57442;BME280;43284;47.042;15.498;2023-04-06T10:06:05;97176.00;;;8.22;32.54
57442;BME280;43284;47.042;15.498;2023-04-06T10:08:38;97172.94;;;7.89;31.70
57442;BME280;43284;47.042;15.498;2023-04-06T10:11:08;97163.31;;;7.91;31.91
57442;BME280;43284;47.042;15.498;2023-04-06T10:13:35;97169.97;;;7.98;32.92
57442;BME280;43284;47.042;15.498;2023-04-06T10:16:01;97172.72;;;7.95;31.68
57442;BME280;43284;47.042;15.498;2023-04-06T10:18:27;97156.44;;;7.66;32.54
57442;BME280;43284;47.042;15.498;2023-04-06T10:20:57;97164.41;;;7.85;32.81
57442;BME280;43284;47.042;15.498;2023-04-06T10:25:58;97143.72;;;8.04;31.67
57442;BME280;43284;47.042;15.498;2023-04-06T10:28:25;97134.78;;;8.11;31.31
57442;BME280;43284;47.042;15.498;2023-04-06T10:30:59;97137.84;;;8.44;32.25
57442;BME280;43284;47.042;15.498;2023-04-06T10:33:25;97132.63;;;8.44;33.15
57442;BME280;43284;47.042;15.498;2023-04-06T10:35:51;97126.97;;;8.96;32.77
57442;BME280;43284;47.042;15.498;2023-04-06T10:38:17;97116.84;;;8.90;32.67
57442;BME280;43284;47.042;15.498;2023-04-06T10:40:48;97123.59;;;9.15;31.19
57442;BME280;43284;47.042;15.498;2023-04-06T10:43:18;97129.34;;;9.02;30.59
57442;BME280;43284;47.042;15.498;2023-04-06T10:45:44;97122.19;;;9.07;29.52
57442;BME280;43284;47.042;15.498;2023-04-06T10:48:14;97114.84;;;9.16;30.58
57442;BME280;43284;47.042;15.498;2023-04-06T10:50:43;97127.47;;;9.45;30.43
57442;BME280;43284;47.042;15.498;2023-04-06T10:53:08;97111.34;;;9.17;29.09
57442;BME280;43284;47.042;15.498;2023-04-06T10:55:38;97112.81;;;9.22;28.39
57442;BME280;43284;47.042;15.498;2023-04-06T10:58:08;97109.72;;;9.33;28.69
57442;BME280;43284;47.042;15.498;2023-04-06T11:00:34;97104.19;;;9.41;29.96
57442;BME280;43284;47.042;15.498;2023-04-06T11:03:00;97113.09;;;9.56;33.35
57442;BME280;43284;47.042;15.498;2023-04-06T11:05:27;97100.53;;;9.83;31.86
57442;BME280;43284;47.042;15.498;2023-04-06T11:07:52;97107.66;;;9.98;29.69
57442;BME280;43284;47.042;15.498;2023-04-06T11:10:22;97110.13;;;9.82;28.53
57442;BME280;43284;47.042;15.498;2023-04-06T11:12:53;97080.47;;;9.83;28.76
57442;BME280;43284;47.042;15.498;2023-04-06T11:15:19;97084.94;;;9.81;28.98
57442;BME280;43284;47.042;15.498;2023-04-06T11:17:44;97076.81;;;9.87;27.68
57442;BME280;43284;47.042;15.498;2023-04-06T11:20:11;97069.88;;;10.42;30.84
57442;BME280;43284;47.042;15.498;2023-04-06T11:22:50;97069.72;;;10.45;29.20
57442;BME280;43284;47.042;15.498;2023-04-06T11:25:16;97068.94;;;10.60;29.80
57442;BME280;43284;47.042;15.498;2023-04-06T11:27:43;97064.81;;;10.39;27.17
57442;BME280;43284;47.042;15.498;2023-04-06T11:30:09;97059.84;;;10.15;27.13
57442;BME280;43284;47.042;15.498;2023-04-06T11:32:45;97061.50;;;10.16;28.79
57442;BME280;43284;47.042;15.498;2023-04-06T11:35:21;97049.81;;;10.42;27.58
57442;BME280;43284;47.042;15.498;2023-04-06T11:37:49;97050.34;;;10.66;26.89
57442;BME280;43284;47.042;15.498;2023-04-06T11:40:15;97045.91;;;10.51;26.75
57442;BME280;43284;47.042;15.498;2023-04-06T11:42:41;97043.56;;;10.80;28.28
57442;BME280;43284;47.042;15.498;2023-04-06T11:45:07;97046.13;;;10.64;27.14
57442;BME280;43284;47.042;15.498;2023-04-06T11:47:35;97045.06;;;10.50;29.65
57442;BME280;43284;47.042;15.498;2023-04-06T11:52:33;97035.28;;;10.71;26.97
57442;BME280;43284;47.042;15.498;2023-04-06T11:55:10;97037.38;;;11.16;25.82
57442;BME280;43284;47.042;15.498;2023-04-06T11:57:36;97023.06;;;10.72;25.81
57442;BME280;43284;47.042;15.498;2023-04-06T12:00:02;97031.47;;;10.95;26.37
57442;BME280;43284;47.042;15.498;2023-04-06T12:02:28;97027.91;;;11.13;26.63
57442;BME280;43284;47.042;15.498;2023-04-06T12:04:53;97024.41;;;10.97;25.13
57442;BME280;43284;47.042;15.498;2023-04-06T12:07:19;97021.09;;;10.93;24.90
57442;BME280;43284;47.042;15.498;2023-04-06T12:09:44;97024.94;;;11.19;27.05
57442;BME280;43284;47.042;15.498;2023-04-06T12:12:10;97019.44;;;11.57;28.19
57442;BME280;43284;47.042;15.498;2023-04-06T12:14:36;97014.78;;;11.62;24.92
57442;BME280;43284;47.042;15.498;2023-04-06T12:17:01;97008.34;;;11.20;27.08
57442;BME280;43284;47.042;15.498;2023-04-06T12:19:27;97008.28;;;11.53;26.90
57442;BME280;43284;47.042;15.498;2023-04-06T12:21:53;97003.19;;;11.98;26.29
57442;BME280;43284;47.042;15.498;2023-04-06T12:24:19;96998.09;;;12.11;25.10
57442;BME280;43284;47.042;15.498;2023-04-06T12:26:45;96997.31;;;11.79;24.66
57442;BME280;43284;47.042;15.498;2023-04-06T12:29:11;97002.03;;;11.56;24.67
57442;BME280;43284;47.042;15.498;2023-04-06T12:31:38;96987.75;;;11.78;24.75
57442;BME280;43284;47.042;15.498;2023-04-06T12:34:06;96980.28;;;12.02;26.59
57442;BME280;43284;47.042;15.498;2023-04-06T12:36:32;96990.03;;;11.84;24.91
57442;BME280;43284;47.042;15.498;2023-04-06T12:38:58;96984.47;;;11.58;24.85
57442;BME280;43284;47.042;15.498;2023-04-06T12:41:25;96980.38;;;11.84;25.33
57442;BME280;43284;47.042;15.498;2023-04-06T12:43:51;96979.28;;;12.04;24.64
57442;BME280;43284;47.042;15.498;2023-04-06T12:46:17;96984.03;;;12.28;24.76
57442;BME280;43284;47.042;15.498;2023-04-06T12:48:43;96960.41;;;12.58;25.96
57442;BME280;43284;47.042;15.498;2023-04-06T12:51:08;96969.31;;;12.70;25.16
57442;BME280;43284;47.042;15.498;2023-04-06T12:53:35;96968.75;;;12.65;26.56